sensor_id;sensor_type;location;lat;lon;timestamp;temperature;humidity
19847;DHT22;10084;50.518;8.588;2023-02-28T05:31:55;21.10;34.00
19847;DHT22;10084;50.518;8.588;2023-02-28T05:34:21;21.10;34.10
19847;DHT22;10084;50.518;8.588;2023-02-28T05:36:46;21.10;34.00
19847;DHT22;10084;50.518;8.588;2023-02-28T05:39:12;21.20;34.00
19847;DHT22;10084;50.518;8.588;2023-02-28T05:41:42;21.20;34.00
19847;DHT22;10084;50.518;8.588;2023-02-28T05:44:09;21.20;34.00
19847;DHT22;10084;50.518;8.588;2023-02-28T05:46:35;21.20;33.90
19847;DHT22;10084;50.518;8.588;2023-02-28T05:49:01;21.20;33.90
19847;DHT22;10084;50.518;8.588;2023-02-28T05:51:27;21.20;33.90
19847;DHT22;10084;50.518;8.588;2023-02-28T05:53:53;21.20;33.90
19847;DHT22;10084;50.518;8.588;2023-02-28T05:56:19;21.20;33.80
19847;DHT22;10084;50.518;8.588;2023-02-28T05:58:45;21.20;33.90
19847;DHT22;10084;50.518;8.588;2023-02-28T06:01:40;21.20;34.50
19847;DHT22;10084;50.518;8.588;2023-02-28T06:04:09;21.20;33.80
19847;DHT22;10084;50.518;8.588;2023-02-28T06:06:35;21.20;33.70
19847;DHT22;10084;50.518;8.588;2023-02-28T06:09:04;21.20;33.70
19847;DHT22;10084;50.518;8.588;2023-02-28T06:11:30;21.20;33.70
19847;DHT22;10084;50.518;8.588;2023-02-28T06:13:59;21.20;33.70
19847;DHT22;10084;50.518;8.588;2023-02-28T06:16:27;21.20;33.70
19847;DHT22;10084;50.518;8.588;2023-02-28T06:18:53;21.20;33.60
19847;DHT22;10084;50.518;8.588;2023-02-28T06:21:22;21.20;33.60
19847;DHT22;10084;50.518;8.588;2023-02-28T06:23:48;21.30;33.60
19847;DHT22;10084;50.518;8.588;2023-02-28T06:26:13;21.30;33.60
19847;DHT22;10084;50.518;8.588;2023-02-28T06:28:39;21.30;33.60
19847;DHT22;10084;50.518;8.588;2023-02-28T06:31:07;21.30;33.50
19847;DHT22;10084;50.518;8.588;2023-02-28T06:33:34;21.30;33.50
19847;DHT22;10084;50.518;8.588;2023-02-28T06:36:00;21.30;33.50
19847;DHT22;10084;50.518;8.588;2023-02-28T06:38:25;21.30;33.50
19847;DHT22;10084;50.518;8.588;2023-02-28T06:40:55;21.30;33.50
19847;DHT22;10084;50.518;8.588;2023-02-28T06:43:22;21.30;33.50
19847;DHT22;10084;50.518;8.588;2023-02-28T06:45:48;21.30;33.50
19847;DHT22;10084;50.518;8.588;2023-02-28T06:48:14;21.30;33.50
19847;DHT22;10084;50.518;8.588;2023-02-28T06:50:40;21.40;33.50
19847;DHT22;10084;50.518;8.588;2023-02-28T06:53:06;21.40;33.50
19847;DHT22;10084;50.518;8.588;2023-02-28T06:55:31;21.40;33.50
19847;DHT22;10084;50.518;8.588;2023-02-28T06:57:58;21.40;33.40
19847;DHT22;10084;50.518;8.588;2023-02-28T07:00:24;21.40;33.40
19847;DHT22;10084;50.518;8.588;2023-02-28T07:02:50;21.40;33.40
19847;DHT22;10084;50.518;8.588;2023-02-28T07:05:16;21.40;33.40
19847;DHT22;10084;50.518;8.588;2023-02-28T07:07:42;21.40;33.40
19847;DHT22;10084;50.518;8.588;2023-02-28T07:10:13;21.40;33.40
19847;DHT22;10084;50.518;8.588;2023-02-28T07:12:42;21.40;33.40
19847;DHT22;10084;50.518;8.588;2023-02-28T07:15:09;21.40;33.40
19847;DHT22;10084;50.518;8.588;2023-02-28T07:17:35;21.40;33.40
19847;DHT22;10084;50.518;8.588;2023-02-28T07:20:01;21.40;33.40
19847;DHT22;10084;50.518;8.588;2023-02-28T07:22:26;21.40;33.40
19847;DHT22;10084;50.518;8.588;2023-02-28T07:24:54;21.40;33.40
19847;DHT22;10084;50.518;8.588;2023-02-28T07:27:19;21.40;33.40
19847;DHT22;10084;50.518;8.588;2023-02-28T07:29:51;21.40;33.40
19847;DHT22;10084;50.518;8.588;2023-02-28T07:32:18;21.40;33.40
19847;DHT22;10084;50.518;8.588;2023-02-28T07:34:44;21.40;33.40
19847;DHT22;10084;50.518;8.588;2023-02-28T07:37:10;21.40;33.40
19847;DHT22;10084;50.518;8.588;2023-02-28T07:39:36;21.40;33.50
19847;DHT22;10084;50.518;8.588;2023-02-28T07:42:06;21.30;33.40
19847;DHT22;10084;50.518;8.588;2023-02-28T07:44:34;21.30;33.40
19847;DHT22;10084;50.518;8.588;2023-02-28T07:47:01;21.30;33.50
19847;DHT22;10084;50.518;8.588;2023-02-28T07:49:27;21.30;33.40
19847;DHT22;10084;50.518;8.588;2023-02-28T07:51:52;21.30;34.20
19847;DHT22;10084;50.518;8.588;2023-02-28T07:54:18;21.30;33.50
19847;DHT22;10084;50.518;8.588;2023-02-28T07:56:44;21.30;33.50
19847;DHT22;10084;50.518;8.588;2023-02-28T07:59:10;21.30;33.50
19847;DHT22;10084;50.518;8.588;2023-02-28T08:01:35;21.30;33.60
19847;DHT22;10084;50.518;8.588;2023-02-28T08:04:01;21.30;33.60
19847;DHT22;10084;50.518;8.588;2023-02-28T08:06:27;21.20;33.50
19847;DHT22;10084;50.518;8.588;2023-02-28T08:08:53;21.20;33.60
19847;DHT22;10084;50.518;8.588;2023-02-28T08:11:19;21.20;33.60
19847;DHT22;10084;50.518;8.588;2023-02-28T08:13:45;21.20;33.70
19847;DHT22;10084;50.518;8.588;2023-02-28T08:16:12;21.20;33.70
19847;DHT22;10084;50.518;8.588;2023-02-28T08:18:43;21.20;33.60
19847;DHT22;10084;50.518;8.588;2023-02-28T08:21:10;21.20;33.60
19847;DHT22;10084;50.518;8.588;2023-02-28T08:23:36;21.10;33.50
19847;DHT22;10084;50.518;8.588;2023-02-28T08:26:02;21.10;33.40
19847;DHT22;10084;50.518;8.588;2023-02-28T08:28:28;21.10;33.40
19847;DHT22;10084;50.518;8.588;2023-02-28T08:30:54;21.10;33.40
19847;DHT22;10084;50.518;8.588;2023-02-28T08:33:20;21.10;33.50
19847;DHT22;10084;50.518;8.588;2023-02-28T08:35:46;21.10;33.50
19847;DHT22;10084;50.518;8.588;2023-02-28T08:38:12;21.10;33.60
19847;DHT22;10084;50.518;8.588;2023-02-28T08:40:38;21.10;33.60
19847;DHT22;10084;50.518;8.588;2023-02-28T08:43:04;21.10;33.50
19847;DHT22;10084;50.518;8.588;2023-02-28T08:45:29;21.00;33.50
19847;DHT22;10084;50.518;8.588;2023-02-28T08:47:56;21.00;33.50
19847;DHT22;10084;50.518;8.588;2023-02-28T08:50:22;21.00;33.50
19847;DHT22;10084;50.518;8.588;2023-02-28T08:52:48;21.00;33.60
19847;DHT22;10084;50.518;8.588;2023-02-28T08:55:14;21.00;33.60
19847;DHT22;10084;50.518;8.588;2023-02-28T08:57:39;21.00;33.50
19847;DHT22;10084;50.518;8.588;2023-02-28T09:00:06;20.90;33.50
19847;DHT22;10084;50.518;8.588;2023-02-28T09:02:33;20.90;33.50
19847;DHT22;10084;50.518;8.588;2023-02-28T09:04:59;20.90;33.40
19847;DHT22;10084;50.518;8.588;2023-02-28T09:07:27;20.90;33.30
19847;DHT22;10084;50.518;8.588;2023-02-28T09:09:53;20.90;33.10
19847;DHT22;10084;50.518;8.588;2023-02-28T09:12:21;20.90;33.10
19847;DHT22;10084;50.518;8.588;2023-02-28T09:14:47;20.90;33.10
19847;DHT22;10084;50.518;8.588;2023-02-28T09:17:13;20.80;33.00
19847;DHT22;10084;50.518;8.588;2023-02-28T09:19:39;20.80;33.20
19847;DHT22;10084;50.518;8.588;2023-02-28T09:22:05;20.80;33.20
19847;DHT22;10084;50.518;8.588;2023-02-28T09:24:30;20.80;33.10
19847;DHT22;10084;50.518;8.588;2023-02-28T09:26:57;20.70;32.90
19847;DHT22;10084;50.518;8.588;2023-02-28T09:29:23;20.70;32.60
19847;DHT22;10084;50.518;8.588;2023-02-28T09:31:48;20.60;32.30
19847;DHT22;10084;50.518;8.588;2023-02-28T09:36:43;20.40;30.70
19847;DHT22;10084;50.518;8.588;2023-02-28T09:39:09;20.10;30.50
19847;DHT22;10084;50.518;8.588;2023-02-28T09:41:54;19.90;30.00
19847;DHT22;10084;50.518;8.588;2023-02-28T09:44:38;19.50;29.30
19847;DHT22;10084;50.518;8.588;2023-02-28T09:47:26;19.30;29.10
19847;DHT22;10084;50.518;8.588;2023-02-28T09:49:53;19.00;28.80
19847;DHT22;10084;50.518;8.588;2023-02-28T09:52:25;18.80;28.70
19847;DHT22;10084;50.518;8.588;2023-02-28T09:54:52;18.70;28.50
19847;DHT22;10084;50.518;8.588;2023-02-28T09:57:32;18.60;28.30
19847;DHT22;10084;50.518;8.588;2023-02-28T10:02:46;18.50;28.00
19847;DHT22;10084;50.518;8.588;2023-02-28T10:05:20;18.40;28.00
19847;DHT22;10084;50.518;8.588;2023-02-28T10:07:50;18.40;27.90
19847;DHT22;10084;50.518;8.588;2023-02-28T10:10:27;18.30;27.80
19847;DHT22;10084;50.518;8.588;2023-02-28T10:12:57;18.20;27.60
19847;DHT22;10084;50.518;8.588;2023-02-28T10:15:27;18.10;27.50
19847;DHT22;10084;50.518;8.588;2023-02-28T10:17:59;18.00;27.50
19847;DHT22;10084;50.518;8.588;2023-02-28T10:20:26;17.90;26.80
19847;DHT22;10084;50.518;8.588;2023-02-28T10:23:20;17.80;27.20
19847;DHT22;10084;50.518;8.588;2023-02-28T10:26:16;17.80;27.20
19847;DHT22;10084;50.518;8.588;2023-02-28T10:28:44;17.80;27.30
19847;DHT22;10084;50.518;8.588;2023-02-28T10:31:18;17.80;27.90
19847;DHT22;10084;50.518;8.588;2023-02-28T10:33:45;17.90;27.30
19847;DHT22;10084;50.518;8.588;2023-02-28T10:36:17;18.00;27.40
19847;DHT22;10084;50.518;8.588;2023-02-28T10:38:44;18.00;27.30
19847;DHT22;10084;50.518;8.588;2023-02-28T10:41:15;18.00;27.30
19847;DHT22;10084;50.518;8.588;2023-02-28T10:43:42;18.10;27.30
19847;DHT22;10084;50.518;8.588;2023-02-28T10:48:39;18.20;27.40
19847;DHT22;10084;50.518;8.588;2023-02-28T10:51:08;18.20;27.30
19847;DHT22;10084;50.518;8.588;2023-02-28T10:53:51;18.20;27.30
19847;DHT22;10084;50.518;8.588;2023-02-28T10:56:20;18.20;27.30
19847;DHT22;10084;50.518;8.588;2023-02-28T11:01:35;18.20;27.30
19847;DHT22;10084;50.518;8.588;2023-02-28T11:04:01;18.20;27.20
19847;DHT22;10084;50.518;8.588;2023-02-28T11:06:32;18.20;27.20
19847;DHT22;10084;50.518;8.588;2023-02-28T11:09:03;18.20;27.40
19847;DHT22;10084;50.518;8.588;2023-02-28T11:11:40;18.20;27.50
19847;DHT22;10084;50.518;8.588;2023-02-28T11:14:27;18.30;27.60
19847;DHT22;10084;50.518;8.588;2023-02-28T11:16:54;18.30;27.80
19847;DHT22;10084;50.518;8.588;2023-02-28T11:19:25;18.30;28.10
19847;DHT22;10084;50.518;8.588;2023-02-28T11:21:55;18.40;28.50
19847;DHT22;10084;50.518;8.588;2023-02-28T11:26:55;18.50;29.00
19847;DHT22;10084;50.518;8.588;2023-02-28T11:29:26;18.60;29.00
19847;DHT22;10084;50.518;8.588;2023-02-28T11:32:05;18.70;29.20
19847;DHT22;10084;50.518;8.588;2023-02-28T11:34:31;18.70;29.20
19847;DHT22;10084;50.518;8.588;2023-02-28T11:36:59;18.80;29.30
19847;DHT22;10084;50.518;8.588;2023-02-28T11:39:26;18.90;29.30
19847;DHT22;10084;50.518;8.588;2023-02-28T11:47:38;19.10;29.50
19847;DHT22;10084;50.518;8.588;2023-02-28T11:54:11;19.20;29.60
19847;DHT22;10084;50.518;8.588;2023-02-28T11:56:25;19.30;29.60
19847;DHT22;10084;50.518;8.588;2023-02-28T11:59:04;19.30;29.60
19847;DHT22;10084;50.518;8.588;2023-02-28T12:07:55;19.40;30.00
19847;DHT22;10084;50.518;8.588;2023-02-28T12:10:29;19.40;30.00
19847;DHT22;10084;50.518;8.588;2023-02-28T12:18:22;19.40;30.50
19847;DHT22;10084;50.518;8.588;2023-02-28T12:21:41;19.40;30.60
19847;DHT22;10084;50.518;8.588;2023-02-28T12:23:57;19.40;30.60
19847;DHT22;10084;50.518;8.588;2023-02-28T12:26:43;19.40;30.50
19847;DHT22;10084;50.518;8.588;2023-02-28T12:32:09;19.40;30.70
19847;DHT22;10084;50.518;8.588;2023-02-28T12:34:43;19.40;30.90
19847;DHT22;10084;50.518;8.588;2023-02-28T12:37:40;19.40;31.00
19847;DHT22;10084;50.518;8.588;2023-02-28T12:40:25;19.40;31.90
19847;DHT22;10084;50.518;8.588;2023-02-28T12:42:56;19.30;32.30
19847;DHT22;10084;50.518;8.588;2023-02-28T12:45:47;19.30;32.70
19847;DHT22;10084;50.518;8.588;2023-02-28T12:48:29;19.20;33.50
19847;DHT22;10084;50.518;8.588;2023-02-28T12:50:57;19.20;33.80
19847;DHT22;10084;50.518;8.588;2023-02-28T12:53:41;19.10;33.80
19847;DHT22;10084;50.518;8.588;2023-02-28T13:04:40;19.10;34.80
19847;DHT22;10084;50.518;8.588;2023-02-28T13:09:39;19.20;35.00
19847;DHT22;10084;50.518;8.588;2023-02-28T13:12:16;19.20;35.20
19847;DHT22;10084;50.518;8.588;2023-02-28T13:14:42;19.30;35.70
19847;DHT22;10084;50.518;8.588;2023-02-28T13:28:10;19.60;36.80
19847;DHT22;10084;50.518;8.588;2023-02-28T13:31:02;19.70;36.60
19847;DHT22;10084;50.518;8.588;2023-02-28T13:33:36;19.70;36.50
19847;DHT22;10084;50.518;8.588;2023-02-28T13:36:29;19.70;36.20
19847;DHT22;10084;50.518;8.588;2023-02-28T13:38:59;19.70;36.10
19847;DHT22;10084;50.518;8.588;2023-02-28T13:46:37;19.60;35.40
19847;DHT22;10084;50.518;8.588;2023-02-28T13:49:29;19.60;35.10
19847;DHT22;10084;50.518;8.588;2023-02-28T14:02:46;19.30;33.50
19847;DHT22;10084;50.518;8.588;2023-02-28T14:05:20;19.20;33.40
19847;DHT22;10084;50.518;8.588;2023-02-28T14:07:55;19.20;33.40
19847;DHT22;10084;50.518;8.588;2023-02-28T14:10:31;19.20;33.20
19847;DHT22;10084;50.518;8.588;2023-02-28T14:13:10;19.10;33.20
19847;DHT22;10084;50.518;8.588;2023-02-28T14:15:46;19.10;33.10
19847;DHT22;10084;50.518;8.588;2023-02-28T14:21:19;18.90;32.80
19847;DHT22;10084;50.518;8.588;2023-02-28T14:26:31;18.80;32.50
19847;DHT22;10084;50.518;8.588;2023-02-28T14:31:58;18.60;32.10
19847;DHT22;10084;50.518;8.588;2023-02-28T14:34:51;18.60;32.00
19847;DHT22;10084;50.518;8.588;2023-02-28T14:37:29;18.50;31.90
19847;DHT22;10084;50.518;8.588;2023-02-28T14:39:57;18.40;31.80
19847;DHT22;10084;50.518;8.588;2023-02-28T14:42:32;18.40;31.80
19847;DHT22;10084;50.518;8.588;2023-02-28T14:44:58;18.30;31.80
19847;DHT22;10084;50.518;8.588;2023-02-28T14:47:31;18.30;31.80
19847;DHT22;10084;50.518;8.588;2023-02-28T14:49:59;18.30;31.80
19847;DHT22;10084;50.518;8.588;2023-02-28T14:52:27;18.30;31.80
19847;DHT22;10084;50.518;8.588;2023-02-28T14:55:01;18.20;31.80
19847;DHT22;10084;50.518;8.588;2023-02-28T14:57:31;18.20;31.60
19847;DHT22;10084;50.518;8.588;2023-02-28T15:02:33;18.10;31.60
19847;DHT22;10084;50.518;8.588;2023-02-28T15:07:42;18.00;31.40
19847;DHT22;10084;50.518;8.588;2023-02-28T15:10:23;17.90;31.40
19847;DHT22;10084;50.518;8.588;2023-02-28T15:12:56;17.80;31.30
19847;DHT22;10084;50.518;8.588;2023-02-28T15:15:26;17.80;31.40
19847;DHT22;10084;50.518;8.588;2023-02-28T15:17:55;17.70;31.60
19847;DHT22;10084;50.518;8.588;2023-02-28T15:20:23;17.70;31.90
19847;DHT22;10084;50.518;8.588;2023-02-28T15:22:50;17.60;31.90
19847;DHT22;10084;50.518;8.588;2023-02-28T15:25:20;17.60;32.00
19847;DHT22;10084;50.518;8.588;2023-02-28T15:27:54;17.50;31.90
19847;DHT22;10084;50.518;8.588;2023-02-28T15:30:30;17.50;32.10
19847;DHT22;10084;50.518;8.588;2023-02-28T15:33:15;17.50;32.20
19847;DHT22;10084;50.518;8.588;2023-02-28T15:35:43;17.40;32.20
19847;DHT22;10084;50.518;8.588;2023-02-28T15:38:34;17.40;32.30
19847;DHT22;10084;50.518;8.588;2023-02-28T15:41:00;17.40;32.30
19847;DHT22;10084;50.518;8.588;2023-02-28T15:43:32;17.40;32.40
19847;DHT22;10084;50.518;8.588;2023-02-28T15:46:06;17.40;32.50
19847;DHT22;10084;50.518;8.588;2023-02-28T15:51:14;17.40;32.50
19847;DHT22;10084;50.518;8.588;2023-02-28T15:53:49;17.40;32.50
19847;DHT22;10084;50.518;8.588;2023-02-28T15:59:01;17.40;32.10
19847;DHT22;10084;50.518;8.588;2023-02-28T16:01:30;17.40;32.00
19847;DHT22;10084;50.518;8.588;2023-02-28T16:04:03;17.40;32.10
19847;DHT22;10084;50.518;8.588;2023-02-28T16:08:58;17.50;32.00
19847;DHT22;10084;50.518;8.588;2023-02-28T16:11:24;17.60;32.00
19847;DHT22;10084;50.518;8.588;2023-02-28T16:13:51;17.60;32.00
19847;DHT22;10084;50.518;8.588;2023-02-28T16:16:18;17.80;32.00
19847;DHT22;10084;50.518;8.588;2023-02-28T16:18:44;17.90;32.00
19847;DHT22;10084;50.518;8.588;2023-02-28T16:21:11;18.00;32.10
19847;DHT22;10084;50.518;8.588;2023-02-28T16:23:36;18.10;32.20
19847;DHT22;10084;50.518;8.588;2023-02-28T16:26:04;18.20;32.30
19847;DHT22;10084;50.518;8.588;2023-02-28T16:28:36;18.30;32.40
19847;DHT22;10084;50.518;8.588;2023-02-28T16:31:05;18.40;32.50
19847;DHT22;10084;50.518;8.588;2023-02-28T16:33:32;18.40;32.50
19847;DHT22;10084;50.518;8.588;2023-02-28T16:35:59;18.50;32.60
19847;DHT22;10084;50.518;8.588;2023-02-28T16:38:25;18.60;32.70
19847;DHT22;10084;50.518;8.588;2023-02-28T16:40:52;18.70;32.80
19847;DHT22;10084;50.518;8.588;2023-02-28T16:43:22;18.70;32.90
19847;DHT22;10084;50.518;8.588;2023-02-28T16:45:56;18.90;33.00
19847;DHT22;10084;50.518;8.588;2023-02-28T16:48:24;18.90;33.10
19847;DHT22;10084;50.518;8.588;2023-02-28T16:50:50;19.00;33.20
19847;DHT22;10084;50.518;8.588;2023-02-28T16:53:16;19.10;33.30
19847;DHT22;10084;50.518;8.588;2023-02-28T16:55:41;19.20;33.40
19847;DHT22;10084;50.518;8.588;2023-02-28T16:58:15;19.20;33.50
19847;DHT22;10084;50.518;8.588;2023-02-28T17:00:43;19.30;33.60
19847;DHT22;10084;50.518;8.588;2023-02-28T17:03:27;19.30;33.60
19847;DHT22;10084;50.518;8.588;2023-02-28T17:05:52;19.40;33.70
19847;DHT22;10084;50.518;8.588;2023-02-28T17:08:18;19.50;33.70
19847;DHT22;10084;50.518;8.588;2023-02-28T17:10:44;19.50;33.80
19847;DHT22;10084;50.518;8.588;2023-02-28T17:13:10;19.60;33.80
19847;DHT22;10084;50.518;8.588;2023-02-28T17:15:37;19.60;33.80
19847;DHT22;10084;50.518;8.588;2023-02-28T17:18:05;19.70;33.90
19847;DHT22;10084;50.518;8.588;2023-02-28T17:20:31;19.70;34.00
19847;DHT22;10084;50.518;8.588;2023-02-28T17:22:57;19.80;34.10
19847;DHT22;10084;50.518;8.588;2023-02-28T17:25:24;19.80;34.00
19847;DHT22;10084;50.518;8.588;2023-02-28T17:27:50;19.80;34.00
19847;DHT22;10084;50.518;8.588;2023-02-28T17:30:21;19.80;34.10
19847;DHT22;10084;50.518;8.588;2023-02-28T17:32:46;19.90;34.10
19847;DHT22;10084;50.518;8.588;2023-02-28T17:35:13;19.90;34.20
19847;DHT22;10084;50.518;8.588;2023-02-28T17:37:39;20.00;34.20
19847;DHT22;10084;50.518;8.588;2023-02-28T17:40:06;20.00;34.20
19847;DHT22;10084;50.518;8.588;2023-02-28T17:42:32;20.00;34.20
19847;DHT22;10084;50.518;8.588;2023-02-28T17:44:58;20.10;34.20
19847;DHT22;10084;50.518;8.588;2023-02-28T17:47:23;20.10;34.20
19847;DHT22;10084;50.518;8.588;2023-02-28T17:49:49;20.10;34.10
19847;DHT22;10084;50.518;8.588;2023-02-28T17:52:16;20.10;34.00
19847;DHT22;10084;50.518;8.588;2023-02-28T17:54:42;20.20;34.10
19847;DHT22;10084;50.518;8.588;2023-02-28T17:57:13;20.20;34.10
19847;DHT22;10084;50.518;8.588;2023-02-28T17:59:40;20.20;34.00
19847;DHT22;10084;50.518;8.588;2023-02-28T18:02:09;20.20;34.00
19847;DHT22;10084;50.518;8.588;2023-02-28T18:04:37;20.30;34.00
19847;DHT22;10084;50.518;8.588;2023-02-28T18:07:02;20.30;34.00
19847;DHT22;10084;50.518;8.588;2023-02-28T18:09:28;20.30;34.00
19847;DHT22;10084;50.518;8.588;2023-02-28T18:11:55;20.30;34.00
19847;DHT22;10084;50.518;8.588;2023-02-28T18:14:23;20.30;34.00
19847;DHT22;10084;50.518;8.588;2023-02-28T18:16:52;20.30;34.00
19847;DHT22;10084;50.518;8.588;2023-02-28T18:19:19;20.30;34.00
19847;DHT22;10084;50.518;8.588;2023-02-28T18:21:47;20.40;34.00
19847;DHT22;10084;50.518;8.588;2023-02-28T18:24:14;20.40;34.00
19847;DHT22;10084;50.518;8.588;2023-02-28T18:26:41;20.40;34.00
19847;DHT22;10084;50.518;8.588;2023-02-28T18:29:27;20.40;34.00
19847;DHT22;10084;50.518;8.588;2023-02-28T18:31:57;20.50;34.00
19847;DHT22;10084;50.518;8.588;2023-02-28T18:34:23;20.50;33.80
19847;DHT22;10084;50.518;8.588;2023-02-28T18:36:51;20.50;33.70
19847;DHT22;10084;50.518;8.588;2023-02-28T18:39:18;20.50;33.60
19847;DHT22;10084;50.518;8.588;2023-02-28T18:41:43;20.60;33.60
19847;DHT22;10084;50.518;8.588;2023-02-28T18:44:09;20.60;33.60
19847;DHT22;10084;50.518;8.588;2023-02-28T18:46:35;20.60;33.50
19847;DHT22;10084;50.518;8.588;2023-02-28T18:49:01;20.70;33.50
19847;DHT22;10084;50.518;8.588;2023-02-28T18:51:28;20.70;33.40
19847;DHT22;10084;50.518;8.588;2023-02-28T18:53:54;20.80;33.50
19847;DHT22;10084;50.518;8.588;2023-02-28T18:56:22;20.80;33.40
19847;DHT22;10084;50.518;8.588;2023-02-28T18:58:49;20.90;33.40
19847;DHT22;10084;50.518;8.588;2023-02-28T19:01:21;20.90;33.40
19847;DHT22;10084;50.518;8.588;2023-02-28T19:03:48;21.00;33.40
19847;DHT22;10084;50.518;8.588;2023-02-28T19:06:14;21.10;33.40
19847;DHT22;10084;50.518;8.588;2023-02-28T19:08:40;21.10;33.30
19847;DHT22;10084;50.518;8.588;2023-02-28T19:11:11;21.20;33.30
19847;DHT22;10084;50.518;8.588;2023-02-28T19:13:37;21.30;33.30
19847;DHT22;10084;50.518;8.588;2023-02-28T19:16:04;21.30;33.30
19847;DHT22;10084;50.518;8.588;2023-02-28T19:18:31;21.40;33.20
19847;DHT22;10084;50.518;8.588;2023-02-28T19:20:58;21.50;33.20
19847;DHT22;10084;50.518;8.588;2023-02-28T19:23:24;21.50;33.10
19847;DHT22;10084;50.518;8.588;2023-02-28T19:25:50;21.60;33.10
19847;DHT22;10084;50.518;8.588;2023-02-28T19:28:16;21.60;32.40
19847;DHT22;10084;50.518;8.588;2023-02-28T19:30:47;21.70;33.00
19847;DHT22;10084;50.518;8.588;2023-02-28T19:33:14;21.80;32.90
19847;DHT22;10084;50.518;8.588;2023-02-28T19:35:40;21.80;32.80
19847;DHT22;10084;50.518;8.588;2023-02-28T19:38:07;21.90;32.80
19847;DHT22;10084;50.518;8.588;2023-02-28T19:40:34;21.90;32.80
19847;DHT22;10084;50.518;8.588;2023-02-28T19:43:00;22.00;32.80
19847;DHT22;10084;50.518;8.588;2023-02-28T19:45:26;22.00;32.80
19847;DHT22;10084;50.518;8.588;2023-02-28T19:47:54;22.10;32.80
19847;DHT22;10084;50.518;8.588;2023-02-28T19:50:21;22.10;32.80
19847;DHT22;10084;50.518;8.588;2023-02-28T19:52:47;22.10;32.80
19847;DHT22;10084;50.518;8.588;2023-02-28T19:55:15;22.20;32.90
19847;DHT22;10084;50.518;8.588;2023-02-28T19:57:41;22.20;32.90
19847;DHT22;10084;50.518;8.588;2023-02-28T20:00:08;22.20;32.90
19847;DHT22;10084;50.518;8.588;2023-02-28T20:02:38;22.20;32.90
19847;DHT22;10084;50.518;8.588;2023-02-28T20:05:04;22.30;32.90
19847;DHT22;10084;50.518;8.588;2023-02-28T20:07:30;22.30;32.90
19847;DHT22;10084;50.518;8.588;2023-02-28T20:09:57;22.30;32.90
19847;DHT22;10084;50.518;8.588;2023-02-28T20:12:22;22.30;32.80
19847;DHT22;10084;50.518;8.588;2023-02-28T20:14:49;22.30;32.90
19847;DHT22;10084;50.518;8.588;2023-02-28T20:17:16;22.40;32.90
19847;DHT22;10084;50.518;8.588;2023-02-28T20:19:42;22.40;33.00
19847;DHT22;10084;50.518;8.588;2023-02-28T20:22:08;22.40;32.30
19847;DHT22;10084;50.518;8.588;2023-02-28T20:24:35;22.40;32.90
19847;DHT22;10084;50.518;8.588;2023-02-28T20:27:02;22.40;32.90
19847;DHT22;10084;50.518;8.588;2023-02-28T20:29:28;22.40;32.90
19847;DHT22;10084;50.518;8.588;2023-02-28T20:31:55;22.50;32.90
19847;DHT22;10084;50.518;8.588;2023-02-28T20:34:22;22.40;32.80
19847;DHT22;10084;50.518;8.588;2023-02-28T20:36:49;22.50;32.80
19847;DHT22;10084;50.518;8.588;2023-02-28T20:39:16;22.50;32.80
19847;DHT22;10084;50.518;8.588;2023-02-28T20:41:42;22.60;32.80
19847;DHT22;10084;50.518;8.588;2023-02-28T20:44:10;22.60;32.70
19847;DHT22;10084;50.518;8.588;2023-02-28T20:46:37;22.60;32.60
19847;DHT22;10084;50.518;8.588;2023-02-28T20:49:03;22.70;32.60
19847;DHT22;10084;50.518;8.588;2023-02-28T20:51:28;22.80;32.60
19847;DHT22;10084;50.518;8.588;2023-02-28T20:53:54;22.80;32.50
19847;DHT22;10084;50.518;8.588;2023-02-28T20:56:21;22.90;32.50
19847;DHT22;10084;50.518;8.588;2023-02-28T20:58:52;23.00;32.60
19847;DHT22;10084;50.518;8.588;2023-02-28T21:01:23;23.10;32.60
19847;DHT22;10084;50.518;8.588;2023-02-28T21:03:59;23.10;32.60
19847;DHT22;10084;50.518;8.588;2023-02-28T21:06:30;23.20;32.60
19847;DHT22;10084;50.518;8.588;2023-02-28T21:08:57;23.30;32.60
19847;DHT22;10084;50.518;8.588;2023-02-28T21:11:29;23.30;32.50
19847;DHT22;10084;50.518;8.588;2023-02-28T21:13:59;23.40;32.50
19847;DHT22;10084;50.518;8.588;2023-02-28T21:16:26;23.40;33.20
19847;DHT22;10084;50.518;8.588;2023-02-28T21:18:54;23.50;32.60
19847;DHT22;10084;50.518;8.588;2023-02-28T21:21:23;23.60;32.60
19847;DHT22;10084;50.518;8.588;2023-02-28T21:23:50;23.60;32.60
19847;DHT22;10084;50.518;8.588;2023-02-28T21:26:20;23.70;32.60
19847;DHT22;10084;50.518;8.588;2023-02-28T21:28:51;23.80;32.60
19847;DHT22;10084;50.518;8.588;2023-02-28T21:31:18;23.90;32.60
19847;DHT22;10084;50.518;8.588;2023-02-28T21:33:44;23.90;32.50
19847;DHT22;10084;50.518;8.588;2023-02-28T21:36:15;23.90;32.40
19847;DHT22;10084;50.518;8.588;2023-02-28T21:38:43;23.90;32.30
19847;DHT22;10084;50.518;8.588;2023-02-28T21:41:12;23.90;32.20
19847;DHT22;10084;50.518;8.588;2023-02-28T21:43:39;23.90;32.10
19847;DHT22;10084;50.518;8.588;2023-02-28T21:46:08;23.90;32.10
19847;DHT22;10084;50.518;8.588;2023-02-28T21:48:35;23.90;32.10
19847;DHT22;10084;50.518;8.588;2023-02-28T21:51:03;23.90;32.10
19847;DHT22;10084;50.518;8.588;2023-02-28T21:53:30;23.90;32.10
19847;DHT22;10084;50.518;8.588;2023-02-28T21:56:04;23.90;32.10
19847;DHT22;10084;50.518;8.588;2023-02-28T21:58:30;23.90;32.10
